sensor_id;sensor_type;location;lat;lon;timestamp;P1;P2;P0
49686;PMS5003;36064;38.180;-122.272;2023-04-07T00:00:01;1.2;1.0;
49686;PMS5003;36064;38.180;-122.272;2023-04-07T00:05:00;1.2;1.0;
49686;PMS5003;36064;38.180;-122.272;2023-04-07T00:10:00;1.4;1.4;
49686;PMS5003;36064;38.180;-122.272;2023-04-07T00:15:00;0.8;0.8;
49686;PMS5003;36064;38.180;-122.272;2023-04-07T00:20:00;1.0;0.6;
49686;PMS5003;36064;38.180;-122.272;2023-04-07T00:25:00;1.4;2.2;
49686;PMS5003;36064;38.180;-122.272;2023-04-07T00:30:00;1.0;1.8;
49686;PMS5003;36064;38.180;-122.272;2023-04-07T00:35:01;0.6;1.8;
49686;PMS5003;36064;38.180;-122.272;2023-04-07T00:40:00;0.8;0.0;
49686;PMS5003;36064;38.180;-122.272;2023-04-07T00:45:00;1.8;0.0;
49686;PMS5003;36064;38.180;-122.272;2023-04-07T00:50:01;1.8;1.8;
49686;PMS5003;36064;38.180;-122.272;2023-04-07T00:55:00;0.4;0.4;
49686;PMS5003;36064;38.180;-122.272;2023-04-07T01:00:00;1.4;0.4;
49686;PMS5003;36064;38.180;-122.272;2023-04-07T01:05:03;1.2;1.0;
49686;PMS5003;36064;38.180;-122.272;2023-04-07T01:10:01;0.4;0.4;
49686;PMS5003;36064;38.180;-122.272;2023-04-07T01:15:03;1.2;1.2;
49686;PMS5003;36064;38.180;-122.272;2023-04-07T01:20:01;1.2;1.2;
49686;PMS5003;36064;38.180;-122.272;2023-04-07T01:25:13;1.8;1.0;
49686;PMS5003;36064;38.180;-122.272;2023-04-07T01:30:00;1.8;1.0;
49686;PMS5003;36064;38.180;-122.272;2023-04-07T01:35:00;0.6;1.0;
49686;PMS5003;36064;38.180;-122.272;2023-04-07T01:40:00;1.4;1.2;
49686;PMS5003;36064;38.180;-122.272;2023-04-07T01:45:01;1.4;1.0;
49686;PMS5003;36064;38.180;-122.272;2023-04-07T01:50:00;2.0;1.0;
49686;PMS5003;36064;38.180;-122.272;2023-04-07T01:55:00;1.0;0.8;
49686;PMS5003;36064;38.180;-122.272;2023-04-07T02:00:00;1.8;1.8;
49686;PMS5003;36064;38.180;-122.272;2023-04-07T02:05:08;1.4;1.4;
49686;PMS5003;36064;38.180;-122.272;2023-04-07T02:10:01;3.6;2.4;
49686;PMS5003;36064;38.180;-122.272;2023-04-07T02:15:00;1.8;1.0;
49686;PMS5003;36064;38.180;-122.272;2023-04-07T02:20:00;1.4;1.4;
49686;PMS5003;36064;38.180;-122.272;2023-04-07T02:25:00;0.8;0.8;
49686;PMS5003;36064;38.180;-122.272;2023-04-07T02:35:00;2.6;1.0;
49686;PMS5003;36064;38.180;-122.272;2023-04-07T02:40:00;1.6;1.0;
49686;PMS5003;36064;38.180;-122.272;2023-04-07T02:45:00;1.6;1.0;
49686;PMS5003;36064;38.180;-122.272;2023-04-07T02:50:01;2.2;1.0;
49686;PMS5003;36064;38.180;-122.272;2023-04-07T02:55:00;1.4;1.0;
49686;PMS5003;36064;38.180;-122.272;2023-04-07T03:00:00;3.4;1.4;
49686;PMS5003;36064;38.180;-122.272;2023-04-07T03:05:00;1.2;1.2;
49686;PMS5003;36064;38.180;-122.272;2023-04-07T03:10:00;2.0;1.6;
49686;PMS5003;36064;38.180;-122.272;2023-04-07T03:15:00;3.2;3.0;
49686;PMS5003;36064;38.180;-122.272;2023-04-07T03:20:00;1.6;0.8;
49686;PMS5003;36064;38.180;-122.272;2023-04-07T03:25:00;1.4;1.2;
49686;PMS5003;36064;38.180;-122.272;2023-04-07T03:30:00;2.8;2.4;
49686;PMS5003;36064;38.180;-122.272;2023-04-07T03:35:01;3.0;2.6;
49686;PMS5003;36064;38.180;-122.272;2023-04-07T03:40:01;3.2;2.8;
49686;PMS5003;36064;38.180;-122.272;2023-04-07T03:45:00;4.0;3.2;
49686;PMS5003;36064;38.180;-122.272;2023-04-07T03:50:00;2.6;1.8;
49686;PMS5003;36064;38.180;-122.272;2023-04-07T03:55:00;2.4;1.6;
49686;PMS5003;36064;38.180;-122.272;2023-04-07T04:00:00;2.4;1.2;
49686;PMS5003;36064;38.180;-122.272;2023-04-07T04:05:00;0.4;0.2;
49686;PMS5003;36064;38.180;-122.272;2023-04-07T04:10:00;1.2;0.2;
49686;PMS5003;36064;38.180;-122.272;2023-04-07T04:15:00;2.2;1.0;
49686;PMS5003;36064;38.180;-122.272;2023-04-07T04:20:00;0.8;0.0;
49686;PMS5003;36064;38.180;-122.272;2023-04-07T04:25:00;2.8;1.6;
49686;PMS5003;36064;38.180;-122.272;2023-04-07T04:30:00;5.4;4.4;
49686;PMS5003;36064;38.180;-122.272;2023-04-07T04:35:00;3.0;3.0;
49686;PMS5003;36064;38.180;-122.272;2023-04-07T04:40:00;1.6;1.2;
49686;PMS5003;36064;38.180;-122.272;2023-04-07T04:45:00;0.4;0.4;
49686;PMS5003;36064;38.180;-122.272;2023-04-07T04:50:00;2.6;2.2;
49686;PMS5003;36064;38.180;-122.272;2023-04-07T04:55:00;2.4;2.2;
49686;PMS5003;36064;38.180;-122.272;2023-04-07T05:00:00;2.2;1.8;
49686;PMS5003;36064;38.180;-122.272;2023-04-07T05:05:00;2.2;2.0;
49686;PMS5003;36064;38.180;-122.272;2023-04-07T05:10:00;1.0;1.0;
49686;PMS5003;36064;38.180;-122.272;2023-04-07T05:15:00;1.0;1.0;
49686;PMS5003;36064;38.180;-122.272;2023-04-07T05:20:00;1.4;1.4;
49686;PMS5003;36064;38.180;-122.272;2023-04-07T05:25:00;1.4;0.6;
49686;PMS5003;36064;38.180;-122.272;2023-04-07T05:30:00;0.8;0.8;
49686;PMS5003;36064;38.180;-122.272;2023-04-07T05:35:00;1.2;0.4;
49686;PMS5003;36064;38.180;-122.272;2023-04-07T05:40:01;2.4;1.8;
49686;PMS5003;36064;38.180;-122.272;2023-04-07T05:45:00;0.6;0.6;
49686;PMS5003;36064;38.180;-122.272;2023-04-07T05:50:00;3.8;2.6;
49686;PMS5003;36064;38.180;-122.272;2023-04-07T05:55:00;1.6;1.6;
49686;PMS5003;36064;38.180;-122.272;2023-04-07T06:00:00;2.0;1.6;
49686;PMS5003;36064;38.180;-122.272;2023-04-07T06:05:04;3.6;1.4;
49686;PMS5003;36064;38.180;-122.272;2023-04-07T06:10:00;1.8;1.6;
49686;PMS5003;36064;38.180;-122.272;2023-04-07T06:15:00;2.2;2.2;
49686;PMS5003;36064;38.180;-122.272;2023-04-07T06:20:00;0.8;0.8;
49686;PMS5003;36064;38.180;-122.272;2023-04-07T06:25:00;0.4;0.4;
49686;PMS5003;36064;38.180;-122.272;2023-04-07T06:30:00;1.4;1.4;
49686;PMS5003;36064;38.180;-122.272;2023-04-07T06:35:00;3.2;2.8;
49686;PMS5003;36064;38.180;-122.272;2023-04-07T06:40:00;2.4;2.0;
49686;PMS5003;36064;38.180;-122.272;2023-04-07T06:45:00;2.2;1.4;
49686;PMS5003;36064;38.180;-122.272;2023-04-07T06:50:00;3.6;2.8;
49686;PMS5003;36064;38.180;-122.272;2023-04-07T06:55:00;2.0;1.8;
49686;PMS5003;36064;38.180;-122.272;2023-04-07T07:00:00;1.6;1.6;
49686;PMS5003;36064;38.180;-122.272;2023-04-07T07:05:00;2.8;2.2;
49686;PMS5003;36064;38.180;-122.272;2023-04-07T07:10:00;2.2;2.0;
49686;PMS5003;36064;38.180;-122.272;2023-04-07T07:15:00;2.0;2.0;
49686;PMS5003;36064;38.180;-122.272;2023-04-07T07:20:00;3.0;2.2;
49686;PMS5003;36064;38.180;-122.272;2023-04-07T07:25:00;2.2;1.8;
49686;PMS5003;36064;38.180;-122.272;2023-04-07T07:30:00;2.6;2.8;
49686;PMS5003;36064;38.180;-122.272;2023-04-07T07:35:00;2.2;2.0;
49686;PMS5003;36064;38.180;-122.272;2023-04-07T07:40:01;1.8;1.4;
49686;PMS5003;36064;38.180;-122.272;2023-04-07T07:45:00;1.8;1.8;
49686;PMS5003;36064;38.180;-122.272;2023-04-07T07:50:00;4.0;4.0;
49686;PMS5003;36064;38.180;-122.272;2023-04-07T07:55:00;4.0;2.0;
49686;PMS5003;36064;38.180;-122.272;2023-04-07T08:00:00;0.8;0.6;
49686;PMS5003;36064;38.180;-122.272;2023-04-07T08:05:00;0.8;0.8;
49686;PMS5003;36064;38.180;-122.272;2023-04-07T08:15:00;2.0;1.4;
49686;PMS5003;36064;38.180;-122.272;2023-04-07T08:20:00;3.0;1.2;
49686;PMS5003;36064;38.180;-122.272;2023-04-07T08:25:00;1.0;0.4;
49686;PMS5003;36064;38.180;-122.272;2023-04-07T08:30:01;1.0;0.4;
49686;PMS5003;36064;38.180;-122.272;2023-04-07T08:35:00;1.0;1.0;
49686;PMS5003;36064;38.180;-122.272;2023-04-07T08:40:00;2.0;2.0;
49686;PMS5003;36064;38.180;-122.272;2023-04-07T08:45:02;2.8;2.4;
49686;PMS5003;36064;38.180;-122.272;2023-04-07T08:50:01;1.6;1.6;
49686;PMS5003;36064;38.180;-122.272;2023-04-07T08:55:00;2.8;2.4;
49686;PMS5003;36064;38.180;-122.272;2023-04-07T09:00:01;1.6;1.8;
49686;PMS5003;36064;38.180;-122.272;2023-04-07T09:05:02;2.6;2.4;
49686;PMS5003;36064;38.180;-122.272;2023-04-07T09:10:00;2.2;1.6;
49686;PMS5003;36064;38.180;-122.272;2023-04-07T09:15:00;1.6;1.6;
49686;PMS5003;36064;38.180;-122.272;2023-04-07T09:20:01;1.0;1.0;
49686;PMS5003;36064;38.180;-122.272;2023-04-07T09:25:08;3.0;3.0;
49686;PMS5003;36064;38.180;-122.272;2023-04-07T09:30:09;3.8;3.4;
49686;PMS5003;36064;38.180;-122.272;2023-04-07T09:35:01;3.4;3.2;
49686;PMS5003;36064;38.180;-122.272;2023-04-07T09:40:01;2.4;2.0;
49686;PMS5003;36064;38.180;-122.272;2023-04-07T09:45:00;1.8;1.4;
49686;PMS5003;36064;38.180;-122.272;2023-04-07T09:50:00;2.4;2.0;
49686;PMS5003;36064;38.180;-122.272;2023-04-07T09:55:00;1.0;0.8;
49686;PMS5003;36064;38.180;-122.272;2023-04-07T10:00:00;2.8;2.4;
49686;PMS5003;36064;38.180;-122.272;2023-04-07T10:05:00;2.4;2.0;
49686;PMS5003;36064;38.180;-122.272;2023-04-07T10:10:00;2.8;2.0;
49686;PMS5003;36064;38.180;-122.272;2023-04-07T10:15:00;1.2;1.2;
49686;PMS5003;36064;38.180;-122.272;2023-04-07T10:20:01;1.2;1.2;
49686;PMS5003;36064;38.180;-122.272;2023-04-07T10:25:02;1.0;0.6;
49686;PMS5003;36064;38.180;-122.272;2023-04-07T10:30:00;1.8;1.6;
49686;PMS5003;36064;38.180;-122.272;2023-04-07T10:35:00;2.6;1.8;
49686;PMS5003;36064;38.180;-122.272;2023-04-07T10:45:00;5.0;5.0;
49686;PMS5003;36064;38.180;-122.272;2023-04-07T11:05:01;5.2;2.6;
49686;PMS5003;36064;38.180;-122.272;2023-04-07T11:10:08;2.4;2.4;
49686;PMS5003;36064;38.180;-122.272;2023-04-07T11:20:00;3.6;3.2;
49686;PMS5003;36064;38.180;-122.272;2023-04-07T11:25:00;1.6;3.2;
49686;PMS5003;36064;38.180;-122.272;2023-04-07T11:30:00;4.6;4.2;
49686;PMS5003;36064;38.180;-122.272;2023-04-07T11:35:00;2.2;2.2;
49686;PMS5003;36064;38.180;-122.272;2023-04-07T11:40:01;1.6;1.8;
49686;PMS5003;36064;38.180;-122.272;2023-04-07T11:45:00;3.6;3.4;
49686;PMS5003;36064;38.180;-122.272;2023-04-07T11:50:01;2.8;2.4;
49686;PMS5003;36064;38.180;-122.272;2023-04-07T11:55:00;3.4;3.0;
49686;PMS5003;36064;38.180;-122.272;2023-04-07T12:00:08;2.8;2.0;
49686;PMS5003;36064;38.180;-122.272;2023-04-07T12:05:01;2.8;2.4;
49686;PMS5003;36064;38.180;-122.272;2023-04-07T12:15:00;2.8;2.4;
49686;PMS5003;36064;38.180;-122.272;2023-04-07T12:20:00;4.0;3.2;
49686;PMS5003;36064;38.180;-122.272;2023-04-07T12:25:00;3.0;2.8;
49686;PMS5003;36064;38.180;-122.272;2023-04-07T12:30:00;5.8;4.2;
49686;PMS5003;36064;38.180;-122.272;2023-04-07T12:35:00;4.2;3.8;
49686;PMS5003;36064;38.180;-122.272;2023-04-07T12:40:00;3.6;3.2;
49686;PMS5003;36064;38.180;-122.272;2023-04-07T12:45:00;2.6;2.4;
49686;PMS5003;36064;38.180;-122.272;2023-04-07T12:50:00;4.8;4.8;
49686;PMS5003;36064;38.180;-122.272;2023-04-07T12:55:00;4.8;4.8;
49686;PMS5003;36064;38.180;-122.272;2023-04-07T13:00:00;3.8;3.8;
49686;PMS5003;36064;38.180;-122.272;2023-04-07T13:05:00;2.8;2.8;
49686;PMS5003;36064;38.180;-122.272;2023-04-07T13:10:00;3.2;3.2;
49686;PMS5003;36064;38.180;-122.272;2023-04-07T13:15:00;3.6;3.2;
49686;PMS5003;36064;38.180;-122.272;2023-04-07T13:20:01;3.4;3.0;
49686;PMS5003;36064;38.180;-122.272;2023-04-07T13:25:00;3.2;2.6;
49686;PMS5003;36064;38.180;-122.272;2023-04-07T13:30:00;2.6;3.0;
49686;PMS5003;36064;38.180;-122.272;2023-04-07T13:35:00;4.0;3.2;
49686;PMS5003;36064;38.180;-122.272;2023-04-07T13:40:00;3.4;2.8;
49686;PMS5003;36064;38.180;-122.272;2023-04-07T13:45:00;3.4;3.2;
49686;PMS5003;36064;38.180;-122.272;2023-04-07T13:50:01;5.2;4.6;
49686;PMS5003;36064;38.180;-122.272;2023-04-07T13:55:00;5.8;5.2;
49686;PMS5003;36064;38.180;-122.272;2023-04-07T14:00:00;6.2;5.2;
49686;PMS5003;36064;38.180;-122.272;2023-04-07T14:05:00;6.6;5.8;
49686;PMS5003;36064;38.180;-122.272;2023-04-07T14:10:00;5.4;5.0;
49686;PMS5003;36064;38.180;-122.272;2023-04-07T14:15:00;7.2;6.4;
49686;PMS5003;36064;38.180;-122.272;2023-04-07T14:20:01;5.4;6.0;
49686;PMS5003;36064;38.180;-122.272;2023-04-07T14:25:00;5.4;6.0;
49686;PMS5003;36064;38.180;-122.272;2023-04-07T14:30:03;3.8;3.8;
49686;PMS5003;36064;38.180;-122.272;2023-04-07T14:35:00;7.2;6.4;
49686;PMS5003;36064;38.180;-122.272;2023-04-07T14:40:00;5.2;4.8;
49686;PMS5003;36064;38.180;-122.272;2023-04-07T14:45:00;5.0;4.2;
49686;PMS5003;36064;38.180;-122.272;2023-04-07T14:50:00;4.8;3.8;
49686;PMS5003;36064;38.180;-122.272;2023-04-07T14:55:00;3.6;3.8;
49686;PMS5003;36064;38.180;-122.272;2023-04-07T15:00:01;2.0;2.0;
49686;PMS5003;36064;38.180;-122.272;2023-04-07T15:05:00;2.8;2.4;
49686;PMS5003;36064;38.180;-122.272;2023-04-07T15:10:00;4.6;3.8;
49686;PMS5003;36064;38.180;-122.272;2023-04-07T15:15:00;4.2;3.8;
49686;PMS5003;36064;38.180;-122.272;2023-04-07T15:20:00;1.6;1.6;
49686;PMS5003;36064;38.180;-122.272;2023-04-07T15:25:00;2.2;2.2;
49686;PMS5003;36064;38.180;-122.272;2023-04-07T15:30:00;2.0;1.6;
49686;PMS5003;36064;38.180;-122.272;2023-04-07T15:35:00;3.0;2.6;
49686;PMS5003;36064;38.180;-122.272;2023-04-07T15:40:01;1.6;1.6;
49686;PMS5003;36064;38.180;-122.272;2023-04-07T15:45:00;2.6;2.6;
49686;PMS5003;36064;38.180;-122.272;2023-04-07T15:50:00;2.4;2.4;
49686;PMS5003;36064;38.180;-122.272;2023-04-07T15:55:00;2.6;2.6;
49686;PMS5003;36064;38.180;-122.272;2023-04-07T16:00:00;6.0;3.6;
49686;PMS5003;36064;38.180;-122.272;2023-04-07T16:05:01;2.4;2.4;
49686;PMS5003;36064;38.180;-122.272;2023-04-07T16:10:00;2.6;2.6;
49686;PMS5003;36064;38.180;-122.272;2023-04-07T16:15:00;2.0;2.0;
49686;PMS5003;36064;38.180;-122.272;2023-04-07T16:20:01;2.2;1.8;
49686;PMS5003;36064;38.180;-122.272;2023-04-07T16:25:00;3.0;3.0;
49686;PMS5003;36064;38.180;-122.272;2023-04-07T16:30:00;2.0;1.6;
49686;PMS5003;36064;38.180;-122.272;2023-04-07T16:35:00;2.4;2.4;
49686;PMS5003;36064;38.180;-122.272;2023-04-07T16:40:00;1.8;1.8;
49686;PMS5003;36064;38.180;-122.272;2023-04-07T16:45:01;2.4;2.4;
49686;PMS5003;36064;38.180;-122.272;2023-04-07T16:50:01;1.6;1.6;
49686;PMS5003;36064;38.180;-122.272;2023-04-07T16:55:00;2.6;2.4;
49686;PMS5003;36064;38.180;-122.272;2023-04-07T17:00:00;1.0;0.8;
49686;PMS5003;36064;38.180;-122.272;2023-04-07T17:05:00;2.8;2.0;
49686;PMS5003;36064;38.180;-122.272;2023-04-07T17:10:00;1.0;0.6;
49686;PMS5003;36064;38.180;-122.272;2023-04-07T17:15:00;1.6;1.0;
49686;PMS5003;36064;38.180;-122.272;2023-04-07T17:20:00;2.0;1.2;
49686;PMS5003;36064;38.180;-122.272;2023-04-07T17:25:00;1.6;1.6;
49686;PMS5003;36064;38.180;-122.272;2023-04-07T17:30:00;1.4;1.4;
49686;PMS5003;36064;38.180;-122.272;2023-04-07T17:35:00;2.8;2.8;
49686;PMS5003;36064;38.180;-122.272;2023-04-07T17:40:00;2.2;1.0;
49686;PMS5003;36064;38.180;-122.272;2023-04-07T17:45:01;2.8;2.2;
49686;PMS5003;36064;38.180;-122.272;2023-04-07T17:50:00;0.8;0.8;
49686;PMS5003;36064;38.180;-122.272;2023-04-07T17:55:00;2.2;1.8;
49686;PMS5003;36064;38.180;-122.272;2023-04-07T18:00:00;1.4;1.6;
49686;PMS5003;36064;38.180;-122.272;2023-04-07T18:05:00;1.8;0.8;
49686;PMS5003;36064;38.180;-122.272;2023-04-07T18:10:00;1.8;0.8;
49686;PMS5003;36064;38.180;-122.272;2023-04-07T18:15:00;2.8;2.4;
49686;PMS5003;36064;38.180;-122.272;2023-04-07T18:20:00;1.6;2.2;
49686;PMS5003;36064;38.180;-122.272;2023-04-07T18:25:00;2.0;2.2;
49686;PMS5003;36064;38.180;-122.272;2023-04-07T18:30:00;1.4;1.0;
49686;PMS5003;36064;38.180;-122.272;2023-04-07T18:35:01;1.0;0.8;
49686;PMS5003;36064;38.180;-122.272;2023-04-07T18:40:00;1.4;1.2;
49686;PMS5003;36064;38.180;-122.272;2023-04-07T18:45:00;3.8;3.0;
49686;PMS5003;36064;38.180;-122.272;2023-04-07T18:50:00;2.2;1.8;
49686;PMS5003;36064;38.180;-122.272;2023-04-07T18:55:00;0.0;0.0;
49686;PMS5003;36064;38.180;-122.272;2023-04-07T19:00:00;1.2;1.2;
49686;PMS5003;36064;38.180;-122.272;2023-04-07T19:05:00;1.2;1.2;
49686;PMS5003;36064;38.180;-122.272;2023-04-07T19:10:00;1.8;1.2;
49686;PMS5003;36064;38.180;-122.272;2023-04-07T19:15:00;1.8;1.0;
49686;PMS5003;36064;38.180;-122.272;2023-04-07T19:20:00;1.8;1.6;
49686;PMS5003;36064;38.180;-122.272;2023-04-07T19:25:00;2.4;2.4;
49686;PMS5003;36064;38.180;-122.272;2023-04-07T19:30:00;2.4;2.4;
49686;PMS5003;36064;38.180;-122.272;2023-04-07T19:35:00;2.2;1.4;
49686;PMS5003;36064;38.180;-122.272;2023-04-07T19:40:00;0.6;0.6;
49686;PMS5003;36064;38.180;-122.272;2023-04-07T19:45:00;1.4;1.4;
49686;PMS5003;36064;38.180;-122.272;2023-04-07T19:50:00;2.4;1.6;
49686;PMS5003;36064;38.180;-122.272;2023-04-07T19:55:01;1.4;1.0;
49686;PMS5003;36064;38.180;-122.272;2023-04-07T20:00:00;1.0;1.0;
49686;PMS5003;36064;38.180;-122.272;2023-04-07T20:05:00;3.4;1.8;
49686;PMS5003;36064;38.180;-122.272;2023-04-07T20:10:00;1.2;1.2;
49686;PMS5003;36064;38.180;-122.272;2023-04-07T20:15:00;2.0;2.0;
49686;PMS5003;36064;38.180;-122.272;2023-04-07T20:20:00;1.0;1.0;
49686;PMS5003;36064;38.180;-122.272;2023-04-07T20:25:00;0.8;0.2;
49686;PMS5003;36064;38.180;-122.272;2023-04-07T20:30:00;0.6;0.6;
49686;PMS5003;36064;38.180;-122.272;2023-04-07T20:35:01;0.6;0.6;
49686;PMS5003;36064;38.180;-122.272;2023-04-07T20:40:00;0.0;0.0;
49686;PMS5003;36064;38.180;-122.272;2023-04-07T20:45:00;0.0;0.4;
49686;PMS5003;36064;38.180;-122.272;2023-04-07T20:50:00;0.6;0.6;
49686;PMS5003;36064;38.180;-122.272;2023-04-07T20:55:00;0.6;0.6;
49686;PMS5003;36064;38.180;-122.272;2023-04-07T21:00:00;0.8;0.4;
49686;PMS5003;36064;38.180;-122.272;2023-04-07T21:05:00;0.8;0.6;
49686;PMS5003;36064;38.180;-122.272;2023-04-07T21:10:00;0.8;0.6;
49686;PMS5003;36064;38.180;-122.272;2023-04-07T21:15:00;0.0;0.6;
49686;PMS5003;36064;38.180;-122.272;2023-04-07T21:20:00;0.4;0.6;
49686;PMS5003;36064;38.180;-122.272;2023-04-07T21:25:00;0.4;0.6;
49686;PMS5003;36064;38.180;-122.272;2023-04-07T21:30:02;0.4;0.6;
49686;PMS5003;36064;38.180;-122.272;2023-04-07T21:35:00;0.4;0.6;
49686;PMS5003;36064;38.180;-122.272;2023-04-07T21:40:00;0.4;0.6;
49686;PMS5003;36064;38.180;-122.272;2023-04-07T21:45:00;0.4;0.6;
49686;PMS5003;36064;38.180;-122.272;2023-04-07T21:50:01;0.4;0.6;
49686;PMS5003;36064;38.180;-122.272;2023-04-07T21:55:00;0.4;0.6;
49686;PMS5003;36064;38.180;-122.272;2023-04-07T22:00:00;0.4;0.6;
49686;PMS5003;36064;38.180;-122.272;2023-04-07T22:05:01;0.4;0.6;
49686;PMS5003;36064;38.180;-122.272;2023-04-07T22:10:00;0.4;0.6;
49686;PMS5003;36064;38.180;-122.272;2023-04-07T22:15:00;0.4;0.6;
49686;PMS5003;36064;38.180;-122.272;2023-04-07T22:20:00;0.0;0.0;
49686;PMS5003;36064;38.180;-122.272;2023-04-07T22:25:00;1.6;1.6;
49686;PMS5003;36064;38.180;-122.272;2023-04-07T22:30:10;1.6;1.6;
49686;PMS5003;36064;38.180;-122.272;2023-04-07T22:35:00;1.6;1.6;
49686;PMS5003;36064;38.180;-122.272;2023-04-07T22:40:00;1.6;1.6;
49686;PMS5003;36064;38.180;-122.272;2023-04-07T22:45:00;1.6;1.6;
49686;PMS5003;36064;38.180;-122.272;2023-04-07T22:50:00;1.6;1.6;
49686;PMS5003;36064;38.180;-122.272;2023-04-07T22:55:00;1.6;1.6;
49686;PMS5003;36064;38.180;-122.272;2023-04-07T23:00:00;1.6;1.6;
49686;PMS5003;36064;38.180;-122.272;2023-04-07T23:05:00;1.6;1.6;
49686;PMS5003;36064;38.180;-122.272;2023-04-07T23:10:00;0.0;1.6;
49686;PMS5003;36064;38.180;-122.272;2023-04-07T23:15:00;0.0;0.0;
49686;PMS5003;36064;38.180;-122.272;2023-04-07T23:20:00;1.0;0.4;
49686;PMS5003;36064;38.180;-122.272;2023-04-07T23:25:00;1.0;0.4;
49686;PMS5003;36064;38.180;-122.272;2023-04-07T23:30:00;1.0;0.4;
49686;PMS5003;36064;38.180;-122.272;2023-04-07T23:35:00;1.0;0.4;
49686;PMS5003;36064;38.180;-122.272;2023-04-07T23:40:00;0.8;0.8;
49686;PMS5003;36064;38.180;-122.272;2023-04-07T23:45:00;0.2;0.2;
49686;PMS5003;36064;38.180;-122.272;2023-04-07T23:50:00;1.2;0.8;
49686;PMS5003;36064;38.180;-122.272;2023-04-07T23:55:00;0.0;0.0;
